createdAt,value
2023-03-10T00:01:34.943Z,10.62
2023-03-10T00:04:04.296Z,10.62
2023-03-10T00:06:35.449Z,10.65
2023-03-10T00:09:05.540Z,10.64
2023-03-10T00:11:34.649Z,10.58
2023-03-10T00:14:03.265Z,10.58
2023-03-10T00:16:32.734Z,10.56
2023-03-10T00:19:01.228Z,10.62
2023-03-10T00:21:31.507Z,10.60
2023-03-10T00:24:00.495Z,10.62
2023-03-10T00:26:30.404Z,10.68
2023-03-10T00:28:59.869Z,10.66
2023-03-10T00:31:31.615Z,10.69
2023-03-10T00:34:01.712Z,10.73
2023-03-10T00:36:32.125Z,10.77
2023-03-10T00:39:03.523Z,10.82
2023-03-10T00:41:34.127Z,10.73
2023-03-10T00:44:04.458Z,10.70
2023-03-10T00:46:34.641Z,10.67
2023-03-10T00:49:04.464Z,10.66
2023-03-10T00:51:36.975Z,10.72
2023-03-10T00:54:05.339Z,10.63
2023-03-10T00:56:33.735Z,10.60
2023-03-10T00:59:02.617Z,10.48
2023-03-10T01:01:32.985Z,10.39
2023-03-10T01:04:03.435Z,10.33
2023-03-10T01:06:35.356Z,10.27
2023-03-10T01:09:05.180Z,10.18
2023-03-10T01:11:34.684Z,10.08
2023-03-10T01:14:06.923Z,10.13
2023-03-10T01:16:35.657Z,10.08
2023-03-10T01:19:04.237Z,10.10
2023-03-10T01:21:36.481Z,10.04
2023-03-10T01:24:06.938Z,9.95
2023-03-10T01:26:35.501Z,9.90
2023-03-10T01:29:03.894Z,9.95
2023-03-10T01:31:32.774Z,9.94
2023-03-10T01:34:04.274Z,9.89
2023-03-10T01:36:34.217Z,9.92
2023-03-10T01:39:02.364Z,9.86
2023-03-10T01:41:31.067Z,9.80
2023-03-10T01:43:59.918Z,9.86
2023-03-10T01:46:51.095Z,9.79
2023-03-10T01:49:37.628Z,9.71
2023-03-10T01:52:12.058Z,9.64
2023-03-10T01:54:49.552Z,9.66
2023-03-10T01:57:23.349Z,9.58
2023-03-10T02:00:00.775Z,9.66
2023-03-10T02:02:37.725Z,9.56
2023-03-10T02:05:07.505Z,9.54
2023-03-10T02:07:41.224Z,9.52
2023-03-10T02:10:12.052Z,9.53
2023-03-10T02:12:40.471Z,9.60
2023-03-10T02:15:09.999Z,9.59
2023-03-10T02:17:40.109Z,9.55
2023-03-10T02:20:24.409Z,9.59
2023-03-10T02:22:55.036Z,9.64
2023-03-10T02:25:32.735Z,9.61
2023-03-10T02:28:02.963Z,9.65
2023-03-10T02:30:35.224Z,9.71
2023-03-10T02:33:07.676Z,9.76
2023-03-10T02:35:35.957Z,9.78
2023-03-10T02:38:09.297Z,9.78
2023-03-10T02:40:40.807Z,9.81
2023-03-10T02:43:23.674Z,9.78
2023-03-10T02:45:59.999Z,9.72
2023-03-10T02:48:32.521Z,9.81
2023-03-10T02:51:04.158Z,9.61
2023-03-10T02:53:33.284Z,9.62
2023-03-10T02:56:01.988Z,9.49
2023-03-10T02:58:36.193Z,9.52
2023-03-10T03:01:08.235Z,9.47
2023-03-10T03:03:40.929Z,9.47
2023-03-10T03:06:10.762Z,9.47
2023-03-10T03:08:39.346Z,9.36
2023-03-10T03:11:11.578Z,9.36
2023-03-10T03:13:41.640Z,9.32
2023-03-10T03:16:11.300Z,9.31
2023-03-10T03:18:40.848Z,9.23
2023-03-10T03:21:15.833Z,9.28
2023-03-10T03:23:46.348Z,9.25
2023-03-10T03:26:20.048Z,9.23
2023-03-10T03:28:52.142Z,9.24
2023-03-10T03:31:26.433Z,9.21
2023-03-10T03:34:04.811Z,9.16
2023-03-10T03:36:34.005Z,9.28
2023-03-10T03:39:02.372Z,9.21
2023-03-10T03:41:33.252Z,9.15
2023-03-10T03:44:03.592Z,9.09
2023-03-10T03:46:34.379Z,9.12
2023-03-10T03:49:03.301Z,9.14
2023-03-10T03:51:33.073Z,9.06
2023-03-10T03:54:02.580Z,9.03
2023-03-10T03:56:35.529Z,9.16
2023-03-10T03:59:05.807Z,9.09
2023-03-10T04:01:34.653Z,9.05
2023-03-10T04:04:06.044Z,9.09
2023-03-10T04:06:34.680Z,9.04
2023-03-10T04:09:05.561Z,9.08
2023-03-10T04:11:35.569Z,9.08
2023-03-10T04:14:06.052Z,8.99
2023-03-10T04:16:35.529Z,9.13
2023-03-10T04:19:07.618Z,9.08
2023-03-10T04:21:38.060Z,9.14
2023-03-10T04:24:08.186Z,9.06
2023-03-10T04:26:38.338Z,9.16
2023-03-10T04:29:09.096Z,9.09
2023-03-10T04:31:41.993Z,9.18
2023-03-10T04:34:11.968Z,9.16
2023-03-10T04:36:42.549Z,9.04
2023-03-10T04:39:11.468Z,9.17
2023-03-10T04:41:40.625Z,9.12
2023-03-10T04:44:24.450Z,9.09
2023-03-10T04:46:59.168Z,9.05
2023-03-10T04:49:27.936Z,9.07
2023-03-10T04:51:56.583Z,9.06
2023-03-10T04:54:25.426Z,9.07
2023-03-10T04:56:53.698Z,9.04
2023-03-10T04:59:24.754Z,9.05
2023-03-10T05:01:53.764Z,9.00
2023-03-10T05:04:24.304Z,9.01
2023-03-10T05:06:55.127Z,9.01
2023-03-10T05:09:29.659Z,8.97
2023-03-10T05:11:58.375Z,9.07
2023-03-10T05:14:30.783Z,8.96
2023-03-10T05:16:59.858Z,8.95
2023-03-10T05:19:29.552Z,8.90
2023-03-10T05:22:00.330Z,8.85
2023-03-10T05:24:30.382Z,8.94
2023-03-10T05:26:58.894Z,8.88
2023-03-10T05:29:27.316Z,8.83
2023-03-10T05:32:02.451Z,8.89
2023-03-10T05:34:39.155Z,8.79
2023-03-10T05:37:07.877Z,8.81
2023-03-10T05:39:36.479Z,8.90
2023-03-10T05:42:10.680Z,8.94
2023-03-10T05:44:41.212Z,8.86
2023-03-10T05:47:13.737Z,8.86
2023-03-10T05:49:41.953Z,8.86
2023-03-10T05:52:10.919Z,8.84
2023-03-10T05:54:41.205Z,8.93
2023-03-10T05:57:12.860Z,8.98
2023-03-10T05:59:43.145Z,9.02
2023-03-10T06:02:13.738Z,9.07
2023-03-10T06:04:41.988Z,9.07
2023-03-10T06:07:11.291Z,9.08
2023-03-10T06:09:40.079Z,9.06
2023-03-10T06:12:08.797Z,9.07
2023-03-10T06:14:40.384Z,9.10
2023-03-10T06:17:08.809Z,9.19
2023-03-10T06:19:39.827Z,9.20
2023-03-10T06:22:09.031Z,9.24
2023-03-10T06:24:37.637Z,9.21
2023-03-10T06:27:06.992Z,9.25
2023-03-10T06:29:36.358Z,9.25
2023-03-10T06:32:05.896Z,9.34
2023-03-10T06:34:34.392Z,9.36
2023-03-10T06:37:03.991Z,9.33
2023-03-10T06:39:32.274Z,9.31
2023-03-10T06:42:01.987Z,9.34
2023-03-10T06:44:30.283Z,9.37
2023-03-10T06:46:58.969Z,9.39
2023-03-10T06:49:30.444Z,9.42
2023-03-10T06:51:58.945Z,9.31
2023-03-10T06:54:30.232Z,9.29
2023-03-10T06:56:58.560Z,9.38
2023-03-10T06:59:27.168Z,9.42
2023-03-10T07:01:55.426Z,9.51
2023-03-10T07:04:25.183Z,9.61
2023-03-10T07:06:53.774Z,9.70
2023-03-10T07:09:22.645Z,9.88
2023-03-10T07:11:52.491Z,10.06
2023-03-10T07:14:20.630Z,10.24
2023-03-10T07:16:49.313Z,10.14
2023-03-10T07:19:17.860Z,10.18
2023-03-10T07:21:47.739Z,10.21
2023-03-10T07:24:16.818Z,10.37
2023-03-10T07:26:45.165Z,10.47
2023-03-10T07:29:14.522Z,10.52
2023-03-10T07:31:45.645Z,10.62
2023-03-10T07:34:13.829Z,10.49
2023-03-10T07:36:41.989Z,10.65
2023-03-10T07:39:10.640Z,10.56
2023-03-10T07:41:39.714Z,10.62
2023-03-10T07:44:08.021Z,10.53
2023-03-10T07:46:37.904Z,10.34
2023-03-10T07:49:06.658Z,10.26
2023-03-10T07:51:35.568Z,10.23
2023-03-10T07:54:04.022Z,10.23
2023-03-10T07:56:32.242Z,10.20
2023-03-10T07:59:01.135Z,10.08
2023-03-10T08:01:29.425Z,10.08
2023-03-10T08:04:02.719Z,9.97
2023-03-10T08:06:33.045Z,9.85
2023-03-10T08:09:01.629Z,9.68
2023-03-10T08:11:30.208Z,9.71
2023-03-10T08:14:01.477Z,9.70
2023-03-10T08:16:30.967Z,9.50
2023-03-10T08:19:00.855Z,9.47
2023-03-10T08:21:29.221Z,9.52
2023-03-10T08:23:57.874Z,9.59
2023-03-10T08:26:26.209Z,9.62
2023-03-10T08:28:57.264Z,9.59
2023-03-10T08:31:26.341Z,9.56
2023-03-10T08:33:56.882Z,9.45
2023-03-10T08:36:29.306Z,9.31
2023-03-10T08:38:59.707Z,9.36
2023-03-10T08:41:30.087Z,9.52
2023-03-10T08:44:00.018Z,9.46
2023-03-10T08:46:30.532Z,9.50
2023-03-10T08:48:59.499Z,9.50
2023-03-10T08:51:31.325Z,9.69
2023-03-10T08:53:59.869Z,9.67
2023-03-10T08:56:29.470Z,9.65
2023-03-10T08:58:59.349Z,9.82
2023-03-10T09:02:04.725Z,10.02
2023-03-10T09:04:37.355Z,10.03
2023-03-10T09:07:07.272Z,10.00
2023-03-10T09:09:35.615Z,9.80
2023-03-10T09:12:04.903Z,9.98
2023-03-10T09:14:33.650Z,10.50
2023-03-10T09:17:01.969Z,11.19
2023-03-10T09:19:30.221Z,11.52
2023-03-10T09:21:59.709Z,11.48
2023-03-10T09:24:29.730Z,11.23
2023-03-10T09:26:58.021Z,11.07
2023-03-10T09:29:42.259Z,10.70
2023-03-10T09:32:14.949Z,10.46
2023-03-10T09:34:46.949Z,10.47
2023-03-10T09:37:15.511Z,10.50
2023-03-10T09:39:45.324Z,10.47
2023-03-10T09:42:37.763Z,10.31
2023-03-10T09:45:31.380Z,10.48
2023-03-10T09:48:14.428Z,10.45
2023-03-10T09:50:46.482Z,10.25
2023-03-10T09:53:49.709Z,10.20
2023-03-10T09:56:31.463Z,10.02
2023-03-10T09:59:05.514Z,9.97
2023-03-10T10:01:35.612Z,9.85
2023-03-10T10:04:23.595Z,9.66
2023-03-10T10:06:52.007Z,9.58
2023-03-10T10:09:34.886Z,9.61
2023-03-10T10:12:12.776Z,9.65
2023-03-10T10:14:48.068Z,9.74
2023-03-10T10:17:39.208Z,9.97
2023-03-10T10:20:18.307Z,9.98
2023-03-10T10:22:46.943Z,10.13
2023-03-10T10:25:21.556Z,10.16
2023-03-10T10:27:56.039Z,10.02
2023-03-10T10:30:51.173Z,10.10
2023-03-10T10:33:20.060Z,10.03
2023-03-10T10:36:02.170Z,10.18
2023-03-10T10:38:31.896Z,10.25
2023-03-10T10:41:01.628Z,10.15
2023-03-10T10:43:44.928Z,10.18
2023-03-10T10:46:15.151Z,10.11
2023-03-10T10:49:04.146Z,10.27
2023-03-10T10:51:36.013Z,10.40
2023-03-10T10:54:19.318Z,10.40
2023-03-10T10:56:55.235Z,10.68
2023-03-10T10:59:29.668Z,11.03
2023-03-10T11:01:59.952Z,11.16
2023-03-10T11:04:30.373Z,11.06
2023-03-10T11:07:22.019Z,11.03
2023-03-10T11:10:30.172Z,11.19
2023-03-10T11:13:07.520Z,11.22
2023-03-10T11:15:40.901Z,11.40
2023-03-10T11:18:18.031Z,11.48
2023-03-10T11:20:52.636Z,11.54
2023-03-10T11:23:26.881Z,11.43
2023-03-10T11:27:02.074Z,11.41
2023-03-10T11:30:11.090Z,11.06
2023-03-10T11:33:02.611Z,11.07
2023-03-10T11:35:37.619Z,11.17
2023-03-10T11:38:21.594Z,10.94
2023-03-10T11:40:57.548Z,10.81
2023-03-10T11:43:35.026Z,11.11
2023-03-10T11:46:10.211Z,10.96
2023-03-10T11:48:53.325Z,10.91
2023-03-10T11:51:29.801Z,10.67
2023-03-10T11:54:01.026Z,10.75
2023-03-10T11:56:29.838Z,10.74
2023-03-10T11:59:01.937Z,10.79
2023-03-10T12:01:35.300Z,10.65
2023-03-10T12:04:14.259Z,10.67
2023-03-10T12:06:48.626Z,10.86
2023-03-10T12:09:32.551Z,10.59
2023-03-10T12:12:03.224Z,10.53
2023-03-10T12:14:33.654Z,10.42
2023-03-10T12:17:03.282Z,10.33
2023-03-10T12:19:32.881Z,10.15
2023-03-10T12:22:46.765Z,10.18
2023-03-10T12:25:43.346Z,10.29
2023-03-10T12:28:28.578Z,10.20
2023-03-10T12:30:58.597Z,10.07
2023-03-10T12:33:50.089Z,10.22
2023-03-10T12:36:37.744Z,10.14
2023-03-10T12:39:45.970Z,10.01
2023-03-10T12:42:35.073Z,9.87
2023-03-10T12:45:18.951Z,9.90
2023-03-10T12:47:55.728Z,9.69
2023-03-10T12:51:06.861Z,9.63
2023-03-10T12:53:48.068Z,9.50
2023-03-10T12:56:23.833Z,9.52
2023-03-10T12:58:58.870Z,9.59
2023-03-10T13:01:36.698Z,9.45
2023-03-10T13:04:07.932Z,9.40
2023-03-10T13:06:39.684Z,9.35
2023-03-10T13:09:24.344Z,9.26
2023-03-10T13:11:57.178Z,9.19
2023-03-10T13:14:35.949Z,9.20
2023-03-10T13:17:04.511Z,9.25
2023-03-10T13:19:40.378Z,9.17
2023-03-10T13:22:42.055Z,9.35
2023-03-10T13:25:16.080Z,9.34
2023-03-10T13:27:44.408Z,9.36
2023-03-10T13:30:17.221Z,9.33
2023-03-10T13:32:54.515Z,9.12
2023-03-10T13:35:26.851Z,9.09
2023-03-10T13:38:05.770Z,9.21
2023-03-10T13:40:35.695Z,9.10
2023-03-10T13:43:05.436Z,9.16
2023-03-10T13:45:35.486Z,9.06
2023-03-10T13:48:06.307Z,9.15
2023-03-10T13:50:36.646Z,9.18
2023-03-10T13:53:05.336Z,9.22
2023-03-10T13:55:41.818Z,9.19
2023-03-10T13:58:14.646Z,9.22
2023-03-10T14:00:50.341Z,9.25
2023-03-10T14:03:19.052Z,9.39
2023-03-10T14:05:51.335Z,9.38
2023-03-10T14:08:24.300Z,9.37
2023-03-10T14:10:55.454Z,9.31
2023-03-10T14:13:41.104Z,9.35
2023-03-10T14:16:15.957Z,9.36
2023-03-10T14:18:51.861Z,9.37
2023-03-10T14:21:25.165Z,9.29
2023-03-10T14:23:56.814Z,9.43
2023-03-10T14:26:28.077Z,9.50
2023-03-10T14:28:56.774Z,9.55
2023-03-10T14:31:26.871Z,9.66
2023-03-10T14:33:56.956Z,9.77
2023-03-10T14:36:57.172Z,9.89
2023-03-10T14:39:49.477Z,9.93
2023-03-10T14:42:42.485Z,10.00
2023-03-10T14:45:22.447Z,9.90
2023-03-10T14:47:51.102Z,9.93
2023-03-10T14:50:22.969Z,9.92
2023-03-10T14:52:51.736Z,9.81
2023-03-10T14:55:20.934Z,9.78
2023-03-10T14:57:57.862Z,9.82
2023-03-10T15:00:26.679Z,9.86
2023-03-10T15:02:55.312Z,9.84
2023-03-10T15:05:31.922Z,9.76
2023-03-10T15:08:08.445Z,9.71
2023-03-10T15:10:39.186Z,9.72
2023-03-10T15:13:37.762Z,9.72
2023-03-10T15:17:30.672Z,9.66
2023-03-10T15:23:29.101Z,9.67
2023-03-10T15:25:58.348Z,9.59
2023-03-10T15:28:27.866Z,9.50
2023-03-10T15:30:59.295Z,9.40
2023-03-10T15:33:28.170Z,9.29
2023-03-10T15:35:56.605Z,9.22
2023-03-10T15:38:25.126Z,9.06
2023-03-10T15:40:54.905Z,8.99
2023-03-10T15:43:23.894Z,8.99
2023-03-10T15:45:53.764Z,9.01
2023-03-10T15:48:23.577Z,8.93
2023-03-10T15:50:52.373Z,8.91
2023-03-10T15:53:20.967Z,8.86
2023-03-10T15:55:52.356Z,8.78
2023-03-10T15:58:21.120Z,8.69
2023-03-10T16:00:50.940Z,8.58
2023-03-10T16:03:19.767Z,8.56
2023-03-10T16:05:49.765Z,8.51
2023-03-10T16:08:19.240Z,8.43
2023-03-10T16:10:54.435Z,8.50
2023-03-10T16:13:23.838Z,8.53
2023-03-10T16:15:53.519Z,8.51
2023-03-10T16:18:22.453Z,8.51
2023-03-10T16:21:00.975Z,8.54
2023-03-10T16:23:31.287Z,8.56
2023-03-10T16:26:07.076Z,8.61
2023-03-10T16:28:35.937Z,8.65
2023-03-10T16:31:06.350Z,8.66
2023-03-10T16:33:37.396Z,8.64
2023-03-10T16:36:11.707Z,8.67
2023-03-10T16:38:41.202Z,8.59
2023-03-10T16:41:11.868Z,8.47
2023-03-10T16:43:40.549Z,8.46
2023-03-10T16:46:12.425Z,8.41
2023-03-10T16:48:43.032Z,8.36
2023-03-10T16:51:23.843Z,8.27
2023-03-10T16:53:53.084Z,8.24
2023-03-10T16:56:23.038Z,8.26
2023-03-10T16:58:52.213Z,8.27
2023-03-10T17:01:23.961Z,8.14
2023-03-10T17:03:52.926Z,8.18
2023-03-10T17:06:25.057Z,8.16
2023-03-10T17:08:54.346Z,8.14
2023-03-10T17:11:25.021Z,8.09
2023-03-10T17:13:54.799Z,8.13
2023-03-10T17:16:28.228Z,8.06
2023-03-10T17:18:58.093Z,8.02
2023-03-10T17:21:30.188Z,8.10
2023-03-10T17:23:58.708Z,8.02
2023-03-10T17:26:26.857Z,7.96
2023-03-10T17:28:55.060Z,7.95
2023-03-10T17:31:27.353Z,7.85
2023-03-10T17:33:57.784Z,7.94
2023-03-10T17:36:26.741Z,7.84
2023-03-10T17:38:58.583Z,7.65
2023-03-10T17:41:28.541Z,7.67
2023-03-10T17:43:56.641Z,7.59
2023-03-10T17:46:27.903Z,7.51
2023-03-10T17:49:00.343Z,7.42
2023-03-10T17:51:30.663Z,7.30
2023-03-10T17:54:01.928Z,7.26
2023-03-10T17:56:30.395Z,7.20
2023-03-10T17:59:00.100Z,7.13
2023-03-10T18:01:30.712Z,7.12
2023-03-10T18:04:01.239Z,7.19
2023-03-10T18:06:33.792Z,7.16
2023-03-10T18:09:06.781Z,7.07
2023-03-10T18:11:38.338Z,7.08
2023-03-10T18:14:07.445Z,7.13
2023-03-10T18:16:37.729Z,7.13
2023-03-10T18:19:08.223Z,7.07
2023-03-10T18:21:38.450Z,7.05
2023-03-10T18:24:08.822Z,7.02
2023-03-10T18:26:38.066Z,7.00
2023-03-10T18:29:06.601Z,6.99
2023-03-10T18:31:35.768Z,6.89
2023-03-10T18:34:05.350Z,6.89
2023-03-10T18:36:36.607Z,6.88
2023-03-10T18:39:07.243Z,6.83
2023-03-10T18:41:37.208Z,6.78
2023-03-10T18:44:05.996Z,6.65
2023-03-10T18:46:34.894Z,6.59
2023-03-10T18:49:07.201Z,6.39
2023-03-10T18:51:35.387Z,6.29
2023-03-10T18:54:05.884Z,6.15
2023-03-10T18:56:36.892Z,6.04
2023-03-10T18:59:05.629Z,5.92
2023-03-10T19:01:34.348Z,5.74
2023-03-10T19:04:03.338Z,5.50
2023-03-10T19:06:32.417Z,5.37
2023-03-10T19:09:01.598Z,5.22
2023-03-10T19:11:35.382Z,5.18
2023-03-10T19:14:08.276Z,5.10
2023-03-10T19:16:36.553Z,5.09
2023-03-10T19:19:05.964Z,4.95
2023-03-10T19:21:36.270Z,4.89
2023-03-10T19:24:04.835Z,4.82
2023-03-10T19:26:33.563Z,4.78
2023-03-10T19:29:02.086Z,4.72
2023-03-10T19:31:32.062Z,4.71
2023-03-10T19:34:00.461Z,4.55
2023-03-10T19:36:29.548Z,4.59
2023-03-10T19:38:58.136Z,4.47
2023-03-10T19:41:27.542Z,4.42
2023-03-10T19:44:08.698Z,4.40
2023-03-10T19:46:38.275Z,4.40
2023-03-10T19:49:06.929Z,4.38
2023-03-10T19:51:36.989Z,4.33
2023-03-10T19:54:05.656Z,4.27
2023-03-10T19:56:34.073Z,4.21
2023-03-10T19:59:02.719Z,4.18
2023-03-10T20:01:31.745Z,4.10
2023-03-10T20:04:06.051Z,3.96
2023-03-10T20:06:34.151Z,3.93
2023-03-10T20:09:03.815Z,3.90
2023-03-10T20:11:31.965Z,3.88
2023-03-10T20:14:00.623Z,3.84
2023-03-10T20:16:29.355Z,3.81
2023-03-10T20:19:16.771Z,3.82
2023-03-10T20:21:45.855Z,3.80
2023-03-10T20:24:14.541Z,3.76
2023-03-10T20:26:43.125Z,3.75
2023-03-10T20:29:11.793Z,3.73
2023-03-10T20:31:39.948Z,3.74
2023-03-10T20:34:08.753Z,3.71
2023-03-10T20:36:40.023Z,3.78
2023-03-10T20:39:09.818Z,3.76
2023-03-10T20:41:38.720Z,3.71
2023-03-10T20:44:13.926Z,3.68
2023-03-10T20:46:43.293Z,3.71
2023-03-10T20:49:12.762Z,3.69
2023-03-10T20:51:42.621Z,3.66
2023-03-10T20:54:10.724Z,3.62
2023-03-10T20:56:39.254Z,3.57
2023-03-10T20:59:08.779Z,3.59
2023-03-10T21:01:39.780Z,3.53
2023-03-10T21:04:08.052Z,3.57
2023-03-10T21:06:37.388Z,3.51
2023-03-10T21:09:07.242Z,3.49
2023-03-10T21:11:35.964Z,3.52
2023-03-10T21:14:04.862Z,3.53
2023-03-10T21:16:34.526Z,3.54
2023-03-10T21:19:06.551Z,3.52
2023-03-10T21:21:35.546Z,3.48
2023-03-10T21:24:05.705Z,3.49
2023-03-10T21:26:35.928Z,3.44
2023-03-10T21:29:06.576Z,3.51
2023-03-10T21:31:35.950Z,3.45
2023-03-10T21:34:04.642Z,3.40
2023-03-10T21:36:33.133Z,3.45
2023-03-10T21:39:02.864Z,3.38
2023-03-10T21:41:31.365Z,3.50
2023-03-10T21:44:00.939Z,3.43
2023-03-10T21:46:29.391Z,3.44
2023-03-10T21:49:11.922Z,3.45
2023-03-10T21:51:40.391Z,3.41
2023-03-10T21:54:08.945Z,3.35
2023-03-10T21:56:37.106Z,3.31
2023-03-10T21:59:07.546Z,3.28
2023-03-10T22:01:37.250Z,3.18
2023-03-10T22:04:05.806Z,3.11
2023-03-10T22:06:34.609Z,2.99
2023-03-10T22:09:04.697Z,2.98
2023-03-10T22:11:33.599Z,2.97
2023-03-10T22:14:01.882Z,2.95
2023-03-10T22:16:31.588Z,2.97
2023-03-10T22:19:05.043Z,2.96
2023-03-10T22:21:33.250Z,3.05
2023-03-10T22:24:03.165Z,3.03
2023-03-10T22:26:34.007Z,2.99
2023-03-10T22:29:02.971Z,2.92
2023-03-10T22:31:32.737Z,2.90
2023-03-10T22:34:00.964Z,2.90
2023-03-10T22:36:29.269Z,2.89
2023-03-10T22:39:00.384Z,2.71
2023-03-10T22:41:29.307Z,2.83
2023-03-10T22:43:57.902Z,2.65
2023-03-10T22:46:27.204Z,2.54
2023-03-10T22:49:22.148Z,2.42
2023-03-10T22:51:50.428Z,2.35
2023-03-10T22:54:28.479Z,2.33
2023-03-10T22:57:06.524Z,2.34
2023-03-10T22:59:37.730Z,2.19
2023-03-10T23:02:06.223Z,2.23
2023-03-10T23:04:39.362Z,2.31
2023-03-10T23:07:29.759Z,2.24
2023-03-10T23:13:24.157Z,2.15
2023-03-10T23:16:02.795Z,2.20
2023-03-10T23:18:43.557Z,2.23
2023-03-10T23:21:28.120Z,2.42
2023-03-10T23:24:10.784Z,2.52
2023-03-10T23:26:56.906Z,2.52
2023-03-10T23:29:34.598Z,2.49
2023-03-10T23:32:28.457Z,2.41
2023-03-10T23:35:27.442Z,2.27
2023-03-10T23:38:05.945Z,2.15
2023-03-10T23:40:38.352Z,2.03
2023-03-10T23:43:08.117Z,2.00
2023-03-10T23:45:45.721Z,1.94
2023-03-10T23:48:29.674Z,1.83
2023-03-10T23:50:58.050Z,1.77
2023-03-10T23:53:28.716Z,1.73
2023-03-10T23:56:33.688Z,1.65
2023-03-10T23:59:11.116Z,1.61
